Hagerstown, MD (21742)

1:36 PM EST on December 06, 2016 (GMT -0500)
Robinwood | | Change Station

Elev 545 ft 39.63 °N, 77.67 °W | Updated 4 minutes ago

Light Rain
Light Rain
37.6 °F
Feels Like 38 °F
N
1.0
Wind Variable Wind from West
Gusts 3.0 mph

Today
High -- | Low -- °F
--% Chance of Precip.
Yesterday
High -- | Low -- °F
Precip. -- in
Pressure 29.96 in
Visibility 4.0 miles
Clouds Mostly Cloudy 5500 ft
Overcast 9500 ft
Windchill 38 °F
Dew Point 34 °F
Humidity 88%
Rainfall 0.11 in
Snow Depth Not available.
7:17 AM 4:46 PM
Waxing Crescent, 44% visible
METAR KHGR 061753Z 10005KT 4SM -RA BKN055 OVC095 04/01 A2992 RMK AO2 PRESFR SLP146 P0006 60007 T00390011 10056 20011 58044
Pressure 29.96 in
Visibility 4.0 miles
Clouds Mostly Cloudy 5500 ft
Overcast 9500 ft
Windchill 38 °F
Dew Point 34 °F
Humidity 88%
Rainfall 0.11 in
Snow Depth Not available.
7:17 AM 4:46 PM
Waxing Crescent, 44% visible
METAR KHGR 061753Z 10005KT 4SM -RA BKN055 OVC095 04/01 A2992 RMK AO2 PRESFR SLP146 P0006 60007 T00390011 10056 20011 58044

10-Day Weather Forecast

Almanac

Astronomy

Dec. 06, 2016 Rise Set
Actual Time
Civil Twilight
Nautical Twilight
Astronomical Twilight
Moon
Length of Visible Light
Length of Day
Tomorrow will be .
, % of the Moon is Illuminated

Today's Extremes

State Highs State Lows

Community

WunderPhotos

Upload Photos

1,955,999 photos uploaded!

WunderBlog® & News

Nearby

Air Quality

  Air Quality AQ Index Pollutant
Not available.

Snow Depth

Station Depth Elevation

Earthquake Activity

City Distance Mag. Time & Date
Minimum magnitude displayed is 2.5.

Coastal Water Temperatures

Place Temperature

Stations

Nearby Weather Stations

Station Location Temp. Windchill Dew Point Humidity Wind Precip. Elev Updated Type
                   

Watches & Warnings

There are currently no watches in effect.